sensor_id;sensor_type;location;lat;lon;timestamp;pressure;altitude;pressure_sealevel;temperature;humidity
33191;BME280;19554;42.652;23.364;2023-12-07T00:01:09;94265.72;;;6.67;84.71
33191;BME280;19554;42.652;23.364;2023-12-07T00:03:34;94258.28;;;6.64;84.23
33191;BME280;19554;42.652;23.364;2023-12-07T00:06:00;94228.66;;;6.47;84.42
33191;BME280;19554;42.652;23.364;2023-12-07T00:08:25;94266.22;;;6.69;84.55
33191;BME280;19554;42.652;23.364;2023-12-07T00:10:51;94215.41;;;6.47;84.24
33191;BME280;19554;42.652;23.364;2023-12-07T00:13:16;94267.00;;;6.75;84.37
33191;BME280;19554;42.652;23.364;2023-12-07T00:15:42;94266.22;;;6.74;84.22
33191;BME280;19554;42.652;23.364;2023-12-07T00:18:08;94238.13;;;6.68;84.23
33191;BME280;19554;42.652;23.364;2023-12-07T00:20:33;94259.81;;;6.80;84.42
33191;BME280;19554;42.652;23.364;2023-12-07T00:22:59;94250.03;;;6.71;84.29
33191;BME280;19554;42.652;23.364;2023-12-07T00:25:25;94252.16;;;6.74;84.12
33191;BME280;19554;42.652;23.364;2023-12-07T00:27:51;94250.28;;;6.74;84.07
33191;BME280;19554;42.652;23.364;2023-12-07T00:30:17;94248.69;;;6.78;83.73
33191;BME280;19554;42.652;23.364;2023-12-07T00:32:43;94260.31;;;6.87;83.59
33191;BME280;19554;42.652;23.364;2023-12-07T00:35:12;94188.66;;;6.43;83.46
33191;BME280;19554;42.652;23.364;2023-12-07T00:37:38;94259.78;;;6.91;83.45
33191;BME280;19554;42.652;23.364;2023-12-07T00:40:04;94270.59;;;6.99;83.30
33191;BME280;19554;42.652;23.364;2023-12-07T00:42:30;94207.91;;;6.59;83.28
33191;BME280;19554;42.652;23.364;2023-12-07T00:44:56;94266.09;;;7.00;83.21
33191;BME280;19554;42.652;23.364;2023-12-07T00:47:21;94244.38;;;6.93;83.30
33191;BME280;19554;42.652;23.364;2023-12-07T00:49:47;94191.75;;;6.55;83.11
33191;BME280;19554;42.652;23.364;2023-12-07T00:52:13;94249.13;;;6.96;83.14
33191;BME280;19554;42.652;23.364;2023-12-07T00:54:38;94259.69;;;7.01;83.21
33191;BME280;19554;42.652;23.364;2023-12-07T00:57:07;94250.41;;;7.03;83.17
33191;BME280;19554;42.652;23.364;2023-12-07T00:59:33;94252.81;;;7.05;83.15
33191;BME280;19554;42.652;23.364;2023-12-07T01:02:05;94250.94;;;7.00;83.25
33191;BME280;19554;42.652;23.364;2023-12-07T01:04:31;94262.34;;;7.01;83.05
33191;BME280;19554;42.652;23.364;2023-12-07T01:06:57;94207.63;;;6.71;83.31
33191;BME280;19554;42.652;23.364;2023-12-07T01:09:23;94254.44;;;6.96;83.54
33191;BME280;19554;42.652;23.364;2023-12-07T01:11:49;94171.38;;;6.46;83.79
33191;BME280;19554;42.652;23.364;2023-12-07T01:14:16;94185.69;;;6.50;83.82
33191;BME280;19554;42.652;23.364;2023-12-07T01:16:42;94225.34;;;6.80;83.66
33191;BME280;19554;42.652;23.364;2023-12-07T01:19:08;94175.34;;;6.48;83.79
33191;BME280;19554;42.652;23.364;2023-12-07T01:21:34;94257.63;;;6.98;83.98
33191;BME280;19554;42.652;23.364;2023-12-07T01:23:59;94213.16;;;6.74;84.24
33191;BME280;19554;42.652;23.364;2023-12-07T01:26:25;94244.91;;;6.95;84.01
33191;BME280;19554;42.652;23.364;2023-12-07T01:28:50;94252.84;;;6.95;84.23
33191;BME280;19554;42.652;23.364;2023-12-07T01:31:16;94249.19;;;6.85;84.38
33191;BME280;19554;42.652;23.364;2023-12-07T01:33:43;94238.31;;;6.82;84.19
33191;BME280;19554;42.652;23.364;2023-12-07T01:36:08;94183.13;;;6.29;84.62
33191;BME280;19554;42.652;23.364;2023-12-07T01:38:34;94240.56;;;6.49;85.43
33191;BME280;19554;42.652;23.364;2023-12-07T01:40:59;94231.53;;;6.60;86.09
33191;BME280;19554;42.652;23.364;2023-12-07T01:43:25;94234.94;;;6.66;86.39
33191;BME280;19554;42.652;23.364;2023-12-07T01:45:51;94236.00;;;6.70;86.15
33191;BME280;19554;42.652;23.364;2023-12-07T01:48:20;94235.19;;;6.70;86.36
33191;BME280;19554;42.652;23.364;2023-12-07T01:50:46;94240.97;;;6.77;85.87
33191;BME280;19554;42.652;23.364;2023-12-07T01:53:12;94233.84;;;6.72;86.01
33191;BME280;19554;42.652;23.364;2023-12-07T01:55:39;94232.28;;;6.66;86.32
33191;BME280;19554;42.652;23.364;2023-12-07T01:58:05;94241.31;;;6.70;86.53
33191;BME280;19554;42.652;23.364;2023-12-07T02:00:33;94239.44;;;6.71;86.50
33191;BME280;19554;42.652;23.364;2023-12-07T02:02:58;94229.91;;;6.59;86.92
33191;BME280;19554;42.652;23.364;2023-12-07T02:05:25;94220.66;;;6.57;86.54
33191;BME280;19554;42.652;23.364;2023-12-07T02:07:51;94241.56;;;6.69;86.38
33191;BME280;19554;42.652;23.364;2023-12-07T02:10:17;94219.06;;;6.56;86.42
33191;BME280;19554;42.652;23.364;2023-12-07T02:12:44;94238.13;;;6.63;86.70
33191;BME280;19554;42.652;23.364;2023-12-07T02:15:10;94233.84;;;6.72;86.72
33191;BME280;19554;42.652;23.364;2023-12-07T02:22:56;94229.59;;;6.76;86.18
33191;BME280;19554;42.652;23.364;2023-12-07T02:25:27;94184.38;;;6.47;86.16
33191;BME280;19554;42.652;23.364;2023-12-07T02:27:54;94227.47;;;6.78;85.96
33191;BME280;19554;42.652;23.364;2023-12-07T02:30:19;94214.81;;;6.60;86.17
33191;BME280;19554;42.652;23.364;2023-12-07T02:32:45;94225.69;;;6.58;86.79
33191;BME280;19554;42.652;23.364;2023-12-07T02:35:12;94225.41;;;6.65;86.93
33191;BME280;19554;42.652;23.364;2023-12-07T02:37:45;94218.72;;;6.73;86.73
33191;BME280;19554;42.652;23.364;2023-12-07T02:40:11;94220.59;;;6.77;86.40
33191;BME280;19554;42.652;23.364;2023-12-07T02:42:40;94217.88;;;6.82;85.76
33191;BME280;19554;42.652;23.364;2023-12-07T02:45:09;94220.53;;;6.82;85.72
33191;BME280;19554;42.652;23.364;2023-12-07T02:50:56;94173.03;;;6.36;86.03
33191;BME280;19554;42.652;23.364;2023-12-07T02:53:21;94223.53;;;6.71;86.09
33191;BME280;19554;42.652;23.364;2023-12-07T02:55:47;94225.34;;;6.80;85.78
33191;BME280;19554;42.652;23.364;2023-12-07T02:58:12;94229.03;;;6.79;85.71
33191;BME280;19554;42.652;23.364;2023-12-07T03:00:37;94227.72;;;6.82;85.97
33191;BME280;19554;42.652;23.364;2023-12-07T03:03:03;94230.31;;;6.87;85.56
33191;BME280;19554;42.652;23.364;2023-12-07T03:05:28;94227.41;;;6.88;85.42
33191;BME280;19554;42.652;23.364;2023-12-07T03:07:54;94140.19;;;6.22;84.92
33191;BME280;19554;42.652;23.364;2023-12-07T03:10:19;94140.25;;;6.12;85.19
33191;BME280;19554;42.652;23.364;2023-12-07T03:12:45;94225.94;;;6.67;85.74
33191;BME280;19554;42.652;23.364;2023-12-07T03:15:10;94232.28;;;6.66;85.82
33191;BME280;19554;42.652;23.364;2023-12-07T03:17:36;94235.25;;;6.54;85.75
33191;BME280;19554;42.652;23.364;2023-12-07T03:20:03;94199.56;;;6.21;86.21
33191;BME280;19554;42.652;23.364;2023-12-07T03:22:29;94235.06;;;6.25;86.89
33191;BME280;19554;42.652;23.364;2023-12-07T03:24:55;94164.72;;;5.58;87.58
33191;BME280;19554;42.652;23.364;2023-12-07T03:27:20;94247.31;;;6.06;88.01
33191;BME280;19554;42.652;23.364;2023-12-07T03:29:46;94249.44;;;6.04;88.72
33191;BME280;19554;42.652;23.364;2023-12-07T03:32:11;94256.81;;;6.12;89.22
33191;BME280;19554;42.652;23.364;2023-12-07T03:34:37;94167.91;;;5.65;89.11
33191;BME280;19554;42.652;23.364;2023-12-07T03:37:02;94248.31;;;6.30;88.84
33191;BME280;19554;42.652;23.364;2023-12-07T03:39:28;94236.91;;;6.35;88.22
33191;BME280;19554;42.652;23.364;2023-12-07T03:41:54;94250.38;;;6.49;87.73
33191;BME280;19554;42.652;23.364;2023-12-07T03:44:20;94246.47;;;6.36;87.49
33191;BME280;19554;42.652;23.364;2023-12-07T03:46:46;94258.66;;;6.27;87.91
33191;BME280;19554;42.652;23.364;2023-12-07T03:49:11;94258.44;;;6.13;88.28
33191;BME280;19554;42.652;23.364;2023-12-07T03:51:38;94250.47;;;6.18;88.44
33191;BME280;19554;42.652;23.364;2023-12-07T03:54:03;94135.63;;;5.47;88.44
33191;BME280;19554;42.652;23.364;2023-12-07T03:56:32;94222.13;;;6.13;88.33
33191;BME280;19554;42.652;23.364;2023-12-07T03:58:58;94194.88;;;6.03;88.33
33191;BME280;19554;42.652;23.364;2023-12-07T04:01:27;94161.50;;;5.91;87.83
33191;BME280;19554;42.652;23.364;2023-12-07T04:03:54;94238.19;;;6.48;87.35
33191;BME280;19554;42.652;23.364;2023-12-07T04:06:20;94228.63;;;6.52;86.91
33191;BME280;19554;42.652;23.364;2023-12-07T04:08:46;94232.31;;;6.61;86.68
33191;BME280;19554;42.652;23.364;2023-12-07T04:11:12;94236.00;;;6.70;86.46
33191;BME280;19554;42.652;23.364;2023-12-07T04:13:39;94232.06;;;6.57;86.55
33191;BME280;19554;42.652;23.364;2023-12-07T04:16:05;94230.16;;;6.63;86.35
33191;BME280;19554;42.652;23.364;2023-12-07T04:18:31;94250.56;;;6.73;85.79
33191;BME280;19554;42.652;23.364;2023-12-07T04:20:56;94169.88;;;6.24;85.60
33191;BME280;19554;42.652;23.364;2023-12-07T04:23:22;94189.97;;;6.40;85.59
33191;BME280;19554;42.652;23.364;2023-12-07T04:25:47;94223.81;;;6.59;85.19
33191;BME280;19554;42.652;23.364;2023-12-07T04:28:13;94217.47;;;6.55;85.06
33191;BME280;19554;42.652;23.364;2023-12-07T04:30:38;94265.63;;;6.82;85.08
33191;BME280;19554;42.652;23.364;2023-12-07T04:33:04;94268.81;;;6.84;85.27
33191;BME280;19554;42.652;23.364;2023-12-07T04:35:30;94264.59;;;6.78;85.15
33191;BME280;19554;42.652;23.364;2023-12-07T04:37:55;94278.06;;;6.87;85.11
33191;BME280;19554;42.652;23.364;2023-12-07T04:40:21;94276.75;;;6.89;84.69
33191;BME280;19554;42.652;23.364;2023-12-07T04:42:47;94273.09;;;6.80;84.87
33191;BME280;19554;42.652;23.364;2023-12-07T04:45:12;94278.66;;;6.84;84.94
33191;BME280;19554;42.652;23.364;2023-12-07T04:47:37;94271.47;;;6.84;84.82
33191;BME280;19554;42.652;23.364;2023-12-07T04:50:04;94269.38;;;6.76;84.71
33191;BME280;19554;42.652;23.364;2023-12-07T04:52:29;94265.19;;;6.65;84.65
33191;BME280;19554;42.652;23.364;2023-12-07T04:54:55;94259.34;;;6.63;84.77
33191;BME280;19554;42.652;23.364;2023-12-07T04:57:20;94187.66;;;6.24;84.78
33191;BME280;19554;42.652;23.364;2023-12-07T04:59:45;94275.22;;;6.78;84.98
33191;BME280;19554;42.652;23.364;2023-12-07T05:02:15;94281.53;;;6.87;84.82
33191;BME280;19554;42.652;23.364;2023-12-07T05:04:42;94283.66;;;6.91;84.60
33191;BME280;19554;42.652;23.364;2023-12-07T05:07:08;94286.81;;;6.93;84.51
33191;BME280;19554;42.652;23.364;2023-12-07T05:09:33;94282.59;;;6.86;84.51
33191;BME280;19554;42.652;23.364;2023-12-07T05:11:58;94281.50;;;6.93;84.23
33191;BME280;19554;42.652;23.364;2023-12-07T05:14:24;94269.59;;;6.85;84.13
33191;BME280;19554;42.652;23.364;2023-12-07T05:16:49;94290.00;;;6.95;83.97
33191;BME280;19554;42.652;23.364;2023-12-07T05:19:20;94299.00;;;6.94;84.32
33191;BME280;19554;42.652;23.364;2023-12-07T05:21:46;94294.28;;;6.91;84.17
33191;BME280;19554;42.652;23.364;2023-12-07T05:24:12;94300.66;;;6.84;84.36
33191;BME280;19554;42.652;23.364;2023-12-07T05:26:41;94298.53;;;6.76;84.53
33191;BME280;19554;42.652;23.364;2023-12-07T05:29:07;94293.75;;;6.83;84.96
33191;BME280;19554;42.652;23.364;2023-12-07T05:31:32;94293.47;;;6.85;85.07
33191;BME280;19554;42.652;23.364;2023-12-07T05:33:58;94291.09;;;6.88;85.38
33191;BME280;19554;42.652;23.364;2023-12-07T05:36:23;94295.09;;;6.81;83.66
33191;BME280;19554;42.652;23.364;2023-12-07T05:38:49;94301.72;;;6.78;83.45
33191;BME280;19554;42.652;23.364;2023-12-07T05:41:14;94237.22;;;6.23;83.65
33191;BME280;19554;42.652;23.364;2023-12-07T05:43:41;94288.03;;;6.51;84.12
33191;BME280;19554;42.652;23.364;2023-12-07T05:46:07;94311.88;;;6.51;84.43
33191;BME280;19554;42.652;23.364;2023-12-07T05:48:32;94296.56;;;6.27;84.86
33191;BME280;19554;42.652;23.364;2023-12-07T05:50:58;94226.66;;;5.72;85.46
33191;BME280;19554;42.652;23.364;2023-12-07T05:53:24;94313.00;;;6.29;85.96
33191;BME280;19554;42.652;23.364;2023-12-07T05:55:50;94309.81;;;6.22;86.13
33191;BME280;19554;42.652;23.364;2023-12-07T05:58:16;94318.28;;;6.24;86.68
33191;BME280;19554;42.652;23.364;2023-12-07T06:00:43;94311.94;;;6.30;86.58
33191;BME280;19554;42.652;23.364;2023-12-07T06:03:09;94313.50;;;6.31;86.48
33191;BME280;19554;42.652;23.364;2023-12-07T06:05:37;94268.78;;;5.94;86.56
33191;BME280;19554;42.652;23.364;2023-12-07T06:08:03;94311.94;;;6.20;86.65
33191;BME280;19554;42.652;23.364;2023-12-07T06:10:29;94319.88;;;6.15;86.48
33191;BME280;19554;42.652;23.364;2023-12-07T06:12:56;94322.03;;;6.13;87.33
33191;BME280;19554;42.652;23.364;2023-12-07T06:15:22;94317.25;;;6.20;87.15
33191;BME280;19554;42.652;23.364;2023-12-07T06:17:48;94325.19;;;6.15;87.34
33191;BME280;19554;42.652;23.364;2023-12-07T06:20:13;94322.81;;;6.24;87.45
33191;BME280;19554;42.652;23.364;2023-12-07T06:22:39;94329.97;;;6.23;87.52
33191;BME280;19554;42.652;23.364;2023-12-07T06:25:05;94309.53;;;6.18;87.16
33191;BME280;19554;42.652;23.364;2023-12-07T06:27:30;94290.75;;;6.10;86.67
33191;BME280;19554;42.652;23.364;2023-12-07T06:29:56;94329.41;;;6.41;86.23
33191;BME280;19554;42.652;23.364;2023-12-07T06:32:21;94331.78;;;6.43;86.63
33191;BME280;19554;42.652;23.364;2023-12-07T06:34:47;94323.03;;;6.48;86.13
33191;BME280;19554;42.652;23.364;2023-12-07T06:37:12;94326.25;;;6.39;86.73
33191;BME280;19554;42.652;23.364;2023-12-07T06:39:38;94325.69;;;6.43;86.87
33191;BME280;19554;42.652;23.364;2023-12-07T06:42:04;94325.41;;;6.49;86.43
33191;BME280;19554;42.652;23.364;2023-12-07T06:44:29;94333.34;;;6.54;86.06
33191;BME280;19554;42.652;23.364;2023-12-07T06:46:55;94338.38;;;6.61;85.36
33191;BME280;19554;42.652;23.364;2023-12-07T06:49:20;94338.66;;;6.54;85.41
33191;BME280;19554;42.652;23.364;2023-12-07T06:51:46;94337.34;;;6.57;85.44
33191;BME280;19554;42.652;23.364;2023-12-07T06:54:11;94342.09;;;6.60;85.30
33191;BME280;19554;42.652;23.364;2023-12-07T06:56:37;94335.19;;;6.59;85.21
33191;BME280;19554;42.652;23.364;2023-12-07T06:59:02;94342.38;;;6.63;84.52
33191;BME280;19554;42.652;23.364;2023-12-07T07:01:28;94341.28;;;6.64;84.05
33191;BME280;19554;42.652;23.364;2023-12-07T07:03:53;94337.84;;;6.64;83.95
33191;BME280;19554;42.652;23.364;2023-12-07T07:06:18;94346.84;;;6.63;83.94
33191;BME280;19554;42.652;23.364;2023-12-07T07:08:44;94242.53;;;5.87;84.32
33191;BME280;19554;42.652;23.364;2023-12-07T07:11:12;94344.75;;;6.55;84.10
33191;BME280;19554;42.652;23.364;2023-12-07T07:13:39;94283.59;;;6.15;84.39
33191;BME280;19554;42.652;23.364;2023-12-07T07:16:04;94352.69;;;6.70;84.90
33191;BME280;19554;42.652;23.364;2023-12-07T07:18:30;94352.72;;;6.60;84.24
33191;BME280;19554;42.652;23.364;2023-12-07T07:20:55;94335.22;;;6.38;84.08
33191;BME280;19554;42.652;23.364;2023-12-07T07:23:21;94333.59;;;6.53;84.59
33191;BME280;19554;42.652;23.364;2023-12-07T07:25:46;94351.38;;;6.68;84.53
33191;BME280;19554;42.652;23.364;2023-12-07T07:28:12;94354.28;;;6.71;83.80
33191;BME280;19554;42.652;23.364;2023-12-07T07:30:38;94353.72;;;6.74;83.42
33191;BME280;19554;42.652;23.364;2023-12-07T07:33:04;94356.34;;;6.79;83.08
33191;BME280;19554;42.652;23.364;2023-12-07T07:35:30;94350.00;;;6.75;83.04
33191;BME280;19554;42.652;23.364;2023-12-07T07:37:55;94339.97;;;6.62;83.25
33191;BME280;19554;42.652;23.364;2023-12-07T07:40:21;94358.00;;;6.65;83.68
33191;BME280;19554;42.652;23.364;2023-12-07T07:42:46;94362.25;;;6.56;84.03
33191;BME280;19554;42.652;23.364;2023-12-07T07:45:12;94273.81;;;5.96;84.43
33191;BME280;19554;42.652;23.364;2023-12-07T07:47:37;94367.84;;;6.39;84.81
33191;BME280;19554;42.652;23.364;2023-12-07T07:50:04;94353.81;;;6.33;85.28
33191;BME280;19554;42.652;23.364;2023-12-07T07:52:32;94370.75;;;6.37;85.28
33191;BME280;19554;42.652;23.364;2023-12-07T07:55:00;94360.16;;;6.27;86.06
33191;BME280;19554;42.652;23.364;2023-12-07T07:57:25;94370.75;;;6.27;86.38
33191;BME280;19554;42.652;23.364;2023-12-07T07:59:51;94372.63;;;6.22;86.73
33191;BME280;19554;42.652;23.364;2023-12-07T08:02:16;94373.41;;;6.22;87.02
33191;BME280;19554;42.652;23.364;2023-12-07T08:04:41;94377.66;;;6.08;87.43
33191;BME280;19554;42.652;23.364;2023-12-07T08:07:07;94385.34;;;5.99;88.05
33191;BME280;19554;42.652;23.364;2023-12-07T08:09:33;94388.47;;;5.86;88.70
33191;BME280;19554;42.652;23.364;2023-12-07T08:11:58;94390.03;;;5.77;89.48
33191;BME280;19554;42.652;23.364;2023-12-07T08:14:24;94391.91;;;5.76;89.76
33191;BME280;19554;42.652;23.364;2023-12-07T08:16:49;94392.41;;;5.73;89.71
33191;BME280;19554;42.652;23.364;2023-12-07T08:19:15;94410.97;;;5.78;89.65
33191;BME280;19554;42.652;23.364;2023-12-07T08:21:40;94392.41;;;5.63;89.34
33191;BME280;19554;42.652;23.364;2023-12-07T08:24:06;94405.13;;;5.71;89.64
33191;BME280;19554;42.652;23.364;2023-12-07T08:26:32;94387.13;;;5.68;89.09
33191;BME280;19554;42.652;23.364;2023-12-07T08:28:57;94396.66;;;5.74;89.04
33191;BME280;19554;42.652;23.364;2023-12-07T08:31:23;94396.66;;;5.79;88.18
33191;BME280;19554;42.652;23.364;2023-12-07T08:33:50;94347.34;;;5.37;87.99
33191;BME280;19554;42.652;23.364;2023-12-07T08:36:16;94395.03;;;5.58;87.74
33191;BME280;19554;42.652;23.364;2023-12-07T08:38:42;94415.69;;;5.66;87.57
33191;BME280;19554;42.652;23.364;2023-12-07T08:41:07;94400.81;;;5.44;87.91
33191;BME280;19554;42.652;23.364;2023-12-07T08:43:33;94388.63;;;5.43;88.54
33191;BME280;19554;42.652;23.364;2023-12-07T08:45:58;94406.66;;;5.52;88.22
33191;BME280;19554;42.652;23.364;2023-12-07T08:48:23;94415.91;;;5.44;87.15
33191;BME280;19554;42.652;23.364;2023-12-07T08:50:49;94418.28;;;5.40;87.75
33191;BME280;19554;42.652;23.364;2023-12-07T08:53:14;94409.75;;;5.33;87.66
33191;BME280;19554;42.652;23.364;2023-12-07T08:55:40;94423.59;;;5.40;87.48
33191;BME280;19554;42.652;23.364;2023-12-07T08:58:06;94398.13;;;5.29;87.78
33191;BME280;19554;42.652;23.364;2023-12-07T09:00:32;94426.19;;;5.35;86.81
33191;BME280;19554;42.652;23.364;2023-12-07T09:02:58;94426.41;;;5.23;86.49
33191;BME280;19554;42.652;23.364;2023-12-07T09:05:24;94421.88;;;5.14;87.03
33191;BME280;19554;42.652;23.364;2023-12-07T09:07:50;94420.91;;;5.30;87.85
33191;BME280;19554;42.652;23.364;2023-12-07T09:10:15;94426.19;;;5.30;87.30
33191;BME280;19554;42.652;23.364;2023-12-07T09:12:41;94376.25;;;4.91;86.97
33191;BME280;19554;42.652;23.364;2023-12-07T09:15:07;94413.34;;;5.02;86.66
33191;BME280;19554;42.652;23.364;2023-12-07T09:17:33;94422.94;;;5.18;87.35
33191;BME280;19554;42.652;23.364;2023-12-07T09:19:58;94420.81;;;5.15;87.50
33191;BME280;19554;42.652;23.364;2023-12-07T09:22:24;94398.16;;;4.82;87.08
33191;BME280;19554;42.652;23.364;2023-12-07T09:24:50;94428.69;;;5.05;87.30
33191;BME280;19554;42.652;23.364;2023-12-07T09:27:15;94411.72;;;4.95;87.42
33191;BME280;19554;42.652;23.364;2023-12-07T09:29:41;94428.63;;;4.89;86.95
33191;BME280;19554;42.652;23.364;2023-12-07T09:32:07;94407.16;;;4.81;87.36
33191;BME280;19554;42.652;23.364;2023-12-07T09:34:33;94421.22;;;4.86;86.82
33191;BME280;19554;42.652;23.364;2023-12-07T09:37:08;94358.03;;;4.42;86.40
33191;BME280;19554;42.652;23.364;2023-12-07T09:39:35;94433.88;;;4.84;86.40
33191;BME280;19554;42.652;23.364;2023-12-07T09:42:01;94419.41;;;4.55;87.30
33191;BME280;19554;42.652;23.364;2023-12-07T09:44:26;94435.31;;;4.60;87.33
33191;BME280;19554;42.652;23.364;2023-12-07T09:46:52;94433.69;;;4.54;87.60
33191;BME280;19554;42.652;23.364;2023-12-07T09:49:18;94424.31;;;4.41;87.98
33191;BME280;19554;42.652;23.364;2023-12-07T09:51:44;94425.94;;;4.42;88.36
33191;BME280;19554;42.652;23.364;2023-12-07T09:54:11;94414.72;;;4.24;88.48
33191;BME280;19554;42.652;23.364;2023-12-07T09:56:37;94434.31;;;4.34;88.25
33191;BME280;19554;42.652;23.364;2023-12-07T09:59:03;94438.53;;;4.30;87.88
33191;BME280;19554;42.652;23.364;2023-12-07T10:01:30;94442.16;;;4.23;87.74
33191;BME280;19554;42.652;23.364;2023-12-07T10:04:18;94439.03;;;4.26;87.51
33191;BME280;19554;42.652;23.364;2023-12-07T10:06:45;94435.25;;;4.17;88.28
33191;BME280;19554;42.652;23.364;2023-12-07T10:09:11;94436.06;;;4.18;88.41
33191;BME280;19554;42.652;23.364;2023-12-07T10:11:37;94374.38;;;3.70;87.40
33191;BME280;19554;42.652;23.364;2023-12-07T10:14:03;94441.56;;;4.16;87.76
33191;BME280;19554;42.652;23.364;2023-12-07T10:16:28;94434.97;;;4.14;87.76
33191;BME280;19554;42.652;23.364;2023-12-07T10:18:54;94433.84;;;4.10;87.25
33191;BME280;19554;42.652;23.364;2023-12-07T10:21:37;94433.06;;;4.09;87.30
33191;BME280;19554;42.652;23.364;2023-12-07T10:24:03;94429.59;;;4.03;87.12
33191;BME280;19554;42.652;23.364;2023-12-07T10:26:28;94427.00;;;4.09;87.10
33191;BME280;19554;42.652;23.364;2023-12-07T10:28:54;94422.97;;;4.01;86.67
33191;BME280;19554;42.652;23.364;2023-12-07T10:31:19;94429.59;;;4.03;87.04
33191;BME280;19554;42.652;23.364;2023-12-07T10:33:49;94329.72;;;3.36;87.27
33191;BME280;19554;42.652;23.364;2023-12-07T10:36:15;94399.84;;;3.86;87.38
33191;BME280;19554;42.652;23.364;2023-12-07T10:38:40;94374.63;;;3.68;87.12
33191;BME280;19554;42.652;23.364;2023-12-07T10:41:12;94436.56;;;3.88;87.47
33191;BME280;19554;42.652;23.364;2023-12-07T10:43:43;94423.31;;;3.83;88.13
33191;BME280;19554;42.652;23.364;2023-12-07T10:46:12;94428.56;;;3.77;88.16
33191;BME280;19554;42.652;23.364;2023-12-07T10:48:40;94425.72;;;3.84;88.59
33191;BME280;19554;42.652;23.364;2023-12-07T10:51:09;94413.47;;;3.73;88.20
33191;BME280;19554;42.652;23.364;2023-12-07T10:53:39;94430.00;;;3.90;88.40
33191;BME280;19554;42.652;23.364;2023-12-07T10:56:10;94425.22;;;3.87;88.27
33191;BME280;19554;42.652;23.364;2023-12-07T10:58:37;94431.97;;;3.78;87.30
33191;BME280;19554;42.652;23.364;2023-12-07T11:01:07;94416.13;;;3.73;87.68
33191;BME280;19554;42.652;23.364;2023-12-07T11:03:34;94436.66;;;3.71;87.42
33191;BME280;19554;42.652;23.364;2023-12-07T11:06:00;94435.38;;;3.73;87.74
33191;BME280;19554;42.652;23.364;2023-12-07T11:08:56;94428.69;;;3.66;88.56
33191;BME280;19554;42.652;23.364;2023-12-07T11:11:31;94432.47;;;3.75;88.77
33191;BME280;19554;42.652;23.364;2023-12-07T11:13:59;94436.16;;;3.74;88.74
33191;BME280;19554;42.652;23.364;2023-12-07T11:16:30;94400.50;;;3.44;88.30
33191;BME280;19554;42.652;23.364;2023-12-07T11:18:56;94432.75;;;3.51;89.36
33191;BME280;19554;42.652;23.364;2023-12-07T11:21:21;94396.22;;;3.16;89.90
33191;BME280;19554;42.652;23.364;2023-12-07T11:23:47;94432.25;;;3.54;90.20
33191;BME280;19554;42.652;23.364;2023-12-07T11:26:12;94431.78;;;3.58;89.31
33191;BME280;19554;42.652;23.364;2023-12-07T11:28:39;94439.19;;;3.61;88.99
33191;BME280;19554;42.652;23.364;2023-12-07T11:31:08;94428.66;;;3.61;89.59
33191;BME280;19554;42.652;23.364;2023-12-07T11:33:37;94358.56;;;3.21;88.99
33191;BME280;19554;42.652;23.364;2023-12-07T11:38:28;94426.50;;;3.58;89.54
33191;BME280;19554;42.652;23.364;2023-12-07T11:40:55;94412.97;;;3.49;89.11
33191;BME280;19554;42.652;23.364;2023-12-07T11:43:36;94415.66;;;3.54;89.12
33191;BME280;19554;42.652;23.364;2023-12-07T11:46:03;94409.56;;;3.53;89.46
33191;BME280;19554;42.652;23.364;2023-12-07T11:48:29;94398.41;;;3.46;89.83
33191;BME280;19554;42.652;23.364;2023-12-07T11:51:02;94387.59;;;3.48;89.58
33191;BME280;19554;42.652;23.364;2023-12-07T11:53:29;94403.53;;;3.58;89.94
33191;BME280;19554;42.652;23.364;2023-12-07T11:55:56;94410.28;;;3.71;89.29
33191;BME280;19554;42.652;23.364;2023-12-07T11:58:27;94372.34;;;3.50;88.90
33191;BME280;19554;42.652;23.364;2023-12-07T12:00:53;94390.59;;;3.56;88.33
33191;BME280;19554;42.652;23.364;2023-12-07T12:03:20;94402.91;;;3.73;88.37
33191;BME280;19554;42.652;23.364;2023-12-07T12:05:46;94406.78;;;3.65;87.92
33191;BME280;19554;42.652;23.364;2023-12-07T12:08:12;94400.59;;;3.54;88.61
33191;BME280;19554;42.652;23.364;2023-12-07T12:10:39;94404.22;;;3.48;88.97
33191;BME280;19554;42.652;23.364;2023-12-07T12:13:05;94335.78;;;3.09;89.86
33191;BME280;19554;42.652;23.364;2023-12-07T12:15:31;94317.16;;;2.94;89.40
33191;BME280;19554;42.652;23.364;2023-12-07T12:17:58;94412.75;;;3.55;89.38
33191;BME280;19554;42.652;23.364;2023-12-07T12:20:24;94395.78;;;3.46;89.53
33191;BME280;19554;42.652;23.364;2023-12-07T12:22:51;94399.50;;;3.50;89.73
33191;BME280;19554;42.652;23.364;2023-12-07T12:25:23;94402.34;;;3.44;89.33
33191;BME280;19554;42.652;23.364;2023-12-07T12:27:55;94401.47;;;3.38;90.10
33191;BME280;19554;42.652;23.364;2023-12-07T12:30:22;94398.41;;;3.46;89.72
33191;BME280;19554;42.652;23.364;2023-12-07T12:32:48;94407.81;;;3.37;89.78
33191;BME280;19554;42.652;23.364;2023-12-07T12:35:14;94309.06;;;2.79;90.30
33191;BME280;19554;42.652;23.364;2023-12-07T12:37:44;94411.84;;;3.45;90.32
33191;BME280;19554;42.652;23.364;2023-12-07T12:40:14;94402.13;;;3.45;90.18
33191;BME280;19554;42.652;23.364;2023-12-07T12:42:50;94398.91;;;3.43;89.96
33191;BME280;19554;42.652;23.364;2023-12-07T12:45:17;94406.88;;;3.48;90.12
33191;BME280;19554;42.652;23.364;2023-12-07T12:47:44;94412.66;;;3.45;90.19
33191;BME280;19554;42.652;23.364;2023-12-07T12:50:11;94409.81;;;3.52;89.86
33191;BME280;19554;42.652;23.364;2023-12-07T12:52:37;94408.59;;;3.60;89.73
33191;BME280;19554;42.652;23.364;2023-12-07T12:55:11;94413.38;;;3.63;89.41
33191;BME280;19554;42.652;23.364;2023-12-07T12:57:37;94402.13;;;3.45;89.34
33191;BME280;19554;42.652;23.364;2023-12-07T13:00:04;94415.19;;;3.35;89.43
33191;BME280;19554;42.652;23.364;2023-12-07T13:02:29;94414.06;;;3.31;89.77
33191;BME280;19554;42.652;23.364;2023-12-07T13:04:55;94429.97;;;3.36;90.38
33191;BME280;19554;42.652;23.364;2023-12-07T13:07:21;94442.28;;;3.30;90.37